Time;durP1;ratioP1;P1;durP2;ratioP2;P2;SDS_P1;SDS_P2;PMS_P1;PMS_P2;Temp;Humidity;BMP_temperature;BMP_pressure;BME280_temperature;BME280_humidity;BME280_pressure;Samples;Min_cycle;Max_cycle;Signal;HPM_P1;HPM_P2
2022/08/25 00:00:47;;;;;;;8.80;5.53;;;25.80;67.30;;;;;;5059302;28;20024;-88
2022/08/25 00:03:14;;;;;;;7.65;4.88;;;25.80;67.10;;;;;;5076208;28;20035;-90
2022/08/25 00:05:39;;;;;;;7.47;3.25;;;25.70;66.90;;;;;;5076977;28;20044;-90
2022/08/25 00:08:06;;;;;;;4.55;2.42;;;25.70;66.70;;;;;;5076820;28;20489;-90
2022/08/25 00:10:34;;;;;;;5.57;2.53;;;25.70;66.50;;;;;;5076424;28;20024;-90
2022/08/25 00:13:01;;;;;;;7.43;1.98;;;25.70;66.50;;;;;;5076554;28;20111;-89
2022/08/25 00:15:28;;;;;;;5.70;1.65;;;25.60;66.30;;;;;;5076529;28;20062;-90
2022/08/25 00:17:54;;;;;;;4.72;1.60;;;25.60;66.10;;;;;;5079030;28;20027;-89
2022/08/25 00:20:21;;;;;;;3.55;1.60;;;25.60;66.60;;;;;;5077449;28;20495;-89
2022/08/25 00:22:48;;;;;;;3.83;1.80;;;25.60;65.80;;;;;;5076914;28;20116;-89
2022/08/25 00:25:15;;;;;;;3.20;1.45;;;25.50;65.60;;;;;;5076228;28;20128;-89
2022/08/25 00:27:42;;;;;;;6.13;1.80;;;25.60;65.50;;;;;;5076619;28;20453;-89
2022/08/25 00:30:09;;;;;;;2.53;1.35;;;25.50;65.20;;;;;;5075730;28;20025;-90
2022/08/25 00:32:35;;;;;;;4.30;1.60;;;25.50;65.10;;;;;;5061227;28;20020;-90
2022/08/25 00:35:01;;;;;;;3.30;1.58;;;25.50;64.90;;;;;;5059111;28;20028;-89
2022/08/25 00:37:27;;;;;;;3.03;1.40;;;25.50;64.80;;;;;;5075782;28;20033;-89
2022/08/25 00:39:55;;;;;;;5.45;1.63;;;25.40;64.70;;;;;;5075216;28;20388;-89
2022/08/25 00:42:22;;;;;;;3.08;1.30;;;25.40;64.60;;;;;;5075384;28;20025;-89
2022/08/25 00:44:47;;;;;;;3.22;1.25;;;25.40;64.50;;;;;;5074880;28;20473;-89
2022/08/25 00:47:13;;;;;;;8.63;1.33;;;25.40;64.30;;;;;;5076402;28;20033;-91
2022/08/25 00:49:43;;;;;;;4.88;1.30;;;25.40;64.20;;;;;;5074845;28;20025;-90
2022/08/25 00:52:24;;;;;;;3.83;1.40;;;25.40;64.00;;;;;;5075958;28;20032;-90
2022/08/25 00:54:56;;;;;;;3.92;1.58;;;25.30;63.80;;;;;;5075942;28;20029;-90
2022/08/25 00:57:36;;;;;;;4.07;1.38;;;25.30;63.70;;;;;;5075766;28;20076;-88
2022/08/25 01:00:34;;;;;;;4.28;1.27;;;25.30;63.70;;;;;;5075631;28;20028;-91
2022/08/25 01:03:00;;;;;;;4.55;1.67;;;25.30;63.60;;;;;;5066261;28;20029;-90
2022/08/25 01:05:28;;;;;;;2.80;1.40;;;25.30;63.60;;;;;;5075978;28;20067;-90
2022/08/25 01:07:54;;;;;;;3.88;1.73;;;25.20;63.60;;;;;;5074860;28;20111;-90
2022/08/25 01:10:21;;;;;;;4.03;1.73;;;25.20;63.50;;;;;;5075145;28;20036;-91
2022/08/25 01:12:48;;;;;;;4.57;1.83;;;25.20;63.50;;;;;;5074745;28;20052;-89
2022/08/25 01:15:15;;;;;;;3.58;1.60;;;25.20;63.50;;;;;;5075533;28;20425;-90
2022/08/25 01:17:50;;;;;;;4.43;1.48;;;25.20;63.60;;;;;;5075920;28;20040;-87
2022/08/25 01:20:18;;;;;;;3.70;1.60;;;25.10;63.50;;;;;;5075214;28;20033;-89
2022/08/25 01:22:44;;;;;;;4.28;1.70;;;25.10;63.50;;;;;;5074027;28;20124;-90
2022/08/25 01:25:43;;;;;;;5.05;1.60;;;25.10;63.50;;;;;;5057093;28;20040;-90
2022/08/25 01:28:09;;;;;;;4.25;1.83;;;25.00;63.40;;;;;;5074543;28;20082;-90
2022/08/25 01:30:35;;;;;;;4.13;1.80;;;25.00;63.30;;;;;;5075078;28;20040;-91
2022/08/25 01:33:06;;;;;;;5.00;1.40;;;25.00;63.20;;;;;;5074345;28;20081;-89
2022/08/25 01:35:32;;;;;;;5.13;1.50;;;25.00;63.00;;;;;;5074266;28;20020;-90
2022/08/25 01:38:00;;;;;;;4.45;1.60;;;25.00;62.90;;;;;;5074167;28;20036;-90
2022/08/25 01:40:26;;;;;;;4.18;1.65;;;25.00;62.80;;;;;;5074244;28;20025;-91
2022/08/25 01:42:57;;;;;;;5.95;1.67;;;24.90;62.60;;;;;;5057176;28;20032;-90
2022/08/25 01:45:23;;;;;;;4.50;1.73;;;24.90;62.50;;;;;;5074001;28;20028;-90
2022/08/25 01:47:48;;;;;;;4.88;1.50;;;24.90;62.50;;;;;;5041050;28;20362;-90
2022/08/25 01:50:14;;;;;;;3.80;1.33;;;24.90;62.30;;;;;;5074701;28;20029;-90
2022/08/25 01:53:14;;;;;;;4.35;1.65;;;24.90;62.20;;;;;;5074927;28;20040;-90
2022/08/25 01:56:22;;;;;;;4.88;1.20;;;24.90;62.10;;;;;;5073403;28;20415;-90
2022/08/25 01:58:32;;;;;;;6.85;1.40;;;24.80;62.10;;;;;;5063029;28;20481;-90
2022/08/25 02:01:01;;;;;;;4.43;1.60;;;24.90;62.10;;;;;;5074873;28;20024;-90
2022/08/25 02:03:28;;;;;;;6.32;2.03;;;24.80;61.90;;;;;;5074181;28;20025;-90
2022/08/25 02:05:54;;;;;;;3.72;1.75;;;24.80;61.80;;;;;;5073558;28;20028;-89
2022/08/25 02:08:21;;;;;;;3.45;1.38;;;24.80;61.80;;;;;;5060756;28;20090;-90
2022/08/25 02:10:48;;;;;;;3.95;1.25;;;24.80;61.80;;;;;;5077347;28;20377;-91
2022/08/25 02:13:14;;;;;;;3.28;1.52;;;24.90;61.70;;;;;;5073696;28;20111;-91
2022/08/25 02:15:43;;;;;;;3.33;1.52;;;24.90;61.60;;;;;;5074390;28;20032;-90
2022/08/25 02:18:09;;;;;;;4.97;1.50;;;24.90;61.50;;;;;;5074372;28;20020;-88
2022/08/25 02:20:35;;;;;;;4.72;1.88;;;24.90;61.50;;;;;;5073482;28;20028;-91
2022/08/25 02:23:01;;;;;;;5.10;1.67;;;24.90;61.40;;;;;;5056750;28;20032;-91
2022/08/25 02:25:27;;;;;;;4.90;1.30;;;24.90;61.30;;;;;;5056248;28;20048;-91
2022/08/25 02:27:53;;;;;;;4.15;1.40;;;24.90;61.20;;;;;;5073439;28;20031;-90
2022/08/25 02:30:19;;;;;;;3.00;1.17;;;24.90;61.20;;;;;;5074078;28;20056;-91
2022/08/25 02:32:45;;;;;;;4.03;1.55;;;24.90;61.10;;;;;;5056126;28;20021;-89
2022/08/25 02:35:10;;;;;;;3.60;1.50;;;24.90;61.00;;;;;;5072823;28;20386;-90
2022/08/25 02:37:36;;;;;;;3.33;1.38;;;24.90;60.90;;;;;;5073408;28;20039;-89
2022/08/25 02:40:03;;;;;;;3.70;1.75;;;24.90;60.80;;;;;;5056590;28;20370;-90
2022/08/25 02:42:28;;;;;;;5.63;1.45;;;24.90;60.70;;;;;;5073397;28;20021;-91
2022/08/25 02:44:54;;;;;;;4.22;1.75;;;24.90;60.60;;;;;;5072906;28;20066;-91
2022/08/25 02:47:21;;;;;;;5.15;1.58;;;24.90;60.50;;;;;;5072797;28;20112;-91
2022/08/25 02:49:47;;;;;;;3.63;1.40;;;24.90;60.40;;;;;;5056470;28;20043;-91
2022/08/25 02:52:13;;;;;;;4.90;1.67;;;24.90;60.30;;;;;;5073077;28;20029;-90
2022/08/25 02:54:39;;;;;;;6.05;1.63;;;24.90;60.30;;;;;;5072786;28;20500;-90
2022/08/25 02:57:05;;;;;;;5.00;2.17;;;24.90;60.20;;;;;;5056532;28;20056;-86
2022/08/25 02:59:30;;;;;;;4.28;1.10;;;24.90;60.10;;;;;;5074132;28;20029;-91
2022/08/25 03:01:56;;;;;;;4.57;1.98;;;24.80;60.00;;;;;;5073834;28;20039;-91
2022/08/25 03:04:22;;;;;;;3.17;1.42;;;24.80;59.90;;;;;;5072692;28;20027;-90
2022/08/25 03:06:48;;;;;;;3.45;1.25;;;24.80;59.90;;;;;;5073035;28;20039;-90
2022/08/25 03:09:14;;;;;;;7.13;1.60;;;24.80;59.80;;;;;;5072726;28;20060;-90
2022/08/25 03:11:40;;;;;;;6.60;1.85;;;24.80;59.90;;;;;;5074007;28;20472;-90
2022/08/25 03:14:08;;;;;;;6.80;1.60;;;24.70;59.80;;;;;;5056167;28;20025;-90
2022/08/25 03:16:34;;;;;;;4.72;1.70;;;24.70;59.90;;;;;;5073125;28;20045;-89
2022/08/25 03:19:00;;;;;;;6.35;1.83;;;24.70;59.90;;;;;;5056246;28;20104;-90
2022/08/25 03:21:27;;;;;;;4.50;1.60;;;24.70;59.90;;;;;;5073019;28;20063;-91
2022/08/25 03:23:53;;;;;;;3.92;1.30;;;24.60;59.90;;;;;;5072570;28;20029;-90
2022/08/25 03:29:04;;;;;;;4.70;1.92;;;24.60;60.00;;;;;;5073809;28;20400;-90
2022/08/25 03:31:32;;;;;;;3.33;1.50;;;24.50;60.60;;;;;;5072691;28;20082;-90
2022/08/25 03:33:58;;;;;;;4.18;1.83;;;24.50;60.10;;;;;;5073822;28;20033;-90
2022/08/25 03:36:25;;;;;;;7.05;1.80;;;24.40;60.00;;;;;;5072689;28;20055;-90
2022/08/25 03:38:51;;;;;;;3.78;1.75;;;24.40;60.10;;;;;;5072543;28;20020;-90
2022/08/25 03:41:23;;;;;;;3.10;1.52;;;24.40;60.20;;;;;;5072222;28;20468;-91
2022/08/25 03:43:49;;;;;;;5.50;1.92;;;24.30;60.20;;;;;;5073389;28;20103;-90
2022/08/25 03:46:28;;;;;;;5.82;1.85;;;24.30;60.20;;;;;;5077786;28;20032;-92
2022/08/25 03:48:54;;;;;;;4.50;1.60;;;24.30;60.30;;;;;;5077580;28;20028;-91
2022/08/25 03:51:22;;;;;;;7.68;1.95;;;24.30;60.30;;;;;;5077661;28;20021;-90
2022/08/25 03:53:48;;;;;;;3.95;1.83;;;24.30;60.40;;;;;;5076136;28;20066;-91
2022/08/25 03:56:14;;;;;;;7.55;2.00;;;24.20;60.30;;;;;;5076891;28;20025;-90
2022/08/25 03:58:39;;;;;;;5.55;1.70;;;24.20;60.40;;;;;;5076051;28;20060;-90
2022/08/25 04:01:05;;;;;;;5.10;1.77;;;24.20;60.50;;;;;;5076370;28;20060;-90
2022/08/25 04:03:30;;;;;;;7.07;2.40;;;24.20;61.20;;;;;;5076208;28;20032;-90
2022/08/25 04:06:01;;;;;;;9.50;1.95;;;24.10;60.50;;;;;;5059075;28;20490;-91
2022/08/25 04:08:26;;;;;;;4.22;1.67;;;24.10;60.60;;;;;;5075825;28;20021;-90
2022/08/25 04:10:53;;;;;;;7.25;1.45;;;24.00;60.60;;;;;;5075777;28;20035;-91
2022/08/25 04:13:18;;;;;;;4.47;1.80;;;24.00;60.70;;;;;;5076159;28;20063;-91
2022/08/25 04:15:44;;;;;;;6.10;1.98;;;24.00;60.70;;;;;;5075527;28;20024;-91
2022/08/25 04:18:12;;;;;;;3.45;1.83;;;24.00;60.70;;;;;;5058775;28;20078;-91
2022/08/25 04:20:42;;;;;;;9.65;1.83;;;24.00;60.70;;;;;;5076823;28;20031;-90
2022/08/25 04:23:09;;;;;;;4.78;1.30;;;24.00;60.70;;;;;;5075971;28;20036;-88
2022/08/25 04:25:41;;;;;;;3.72;1.85;;;24.00;60.80;;;;;;5076016;28;20040;-91
2022/08/25 04:28:07;;;;;;;5.75;1.58;;;24.00;60.80;;;;;;5076544;28;20044;-91
2022/08/25 04:30:33;;;;;;;4.80;1.77;;;23.90;60.80;;;;;;5075791;28;20043;-91
2022/08/25 04:32:59;;;;;;;4.72;1.67;;;23.90;60.80;;;;;;5076954;28;20024;-91
2022/08/25 04:35:24;;;;;;;4.10;1.90;;;23.90;60.90;;;;;;5076414;28;20036;-90
2022/08/25 04:37:50;;;;;;;7.03;2.00;;;23.90;61.00;;;;;;5076887;28;20033;-91
2022/08/25 04:40:16;;;;;;;4.97;1.60;;;23.80;61.00;;;;;;5076222;28;20037;-90
2022/08/25 04:42:43;;;;;;;4.72;2.15;;;23.80;61.20;;;;;;5059194;28;20035;-92
2022/08/25 04:45:09;;;;;;;7.18;2.08;;;23.80;61.30;;;;;;5077575;28;20034;-91
2022/08/25 04:47:38;;;;;;;5.45;1.88;;;23.80;61.30;;;;;;5077023;28;20016;-90
2022/08/25 04:50:05;;;;;;;11.60;1.77;;;23.70;61.50;;;;;;5078896;28;20028;-91
2022/08/25 04:52:31;;;;;;;5.97;2.13;;;23.70;61.50;;;;;;5082102;28;20034;-89
2022/08/25 04:54:57;;;;;;;8.05;2.40;;;23.70;61.50;;;;;;5077230;28;20030;-91
2022/08/25 04:57:22;;;;;;;10.10;2.50;;;23.70;61.70;;;;;;5042649;28;20045;-90
2022/08/25 04:59:48;;;;;;;6.15;2.00;;;23.70;61.80;;;;;;5076369;28;20098;-90
2022/08/25 05:02:14;;;;;;;5.38;1.95;;;23.70;61.90;;;;;;5060448;28;20029;-92
2022/08/25 05:04:40;;;;;;;4.75;1.85;;;23.70;61.90;;;;;;5080397;28;20039;-90
2022/08/25 05:07:05;;;;;;;6.35;2.10;;;23.60;61.80;;;;;;5081244;28;20029;-90
2022/08/25 05:09:31;;;;;;;5.57;2.05;;;23.70;61.90;;;;;;5083421;28;20020;-90
2022/08/25 05:11:57;;;;;;;5.25;1.67;;;23.60;61.90;;;;;;5084254;28;20029;-89
2022/08/25 05:14:23;;;;;;;6.65;1.90;;;23.70;62.00;;;;;;5082005;28;20077;-90
2022/08/25 05:16:49;;;;;;;7.15;2.50;;;23.60;62.00;;;;;;5084808;28;20054;-90
2022/08/25 05:19:15;;;;;;;6.10;2.22;;;23.60;62.00;;;;;;5068645;28;20040;-89
2022/08/25 05:21:40;;;;;;;4.70;2.08;;;23.60;62.00;;;;;;5069562;28;20066;-89
2022/08/25 05:24:06;;;;;;;3.75;1.88;;;23.60;62.10;;;;;;5068273;28;20084;-88
2022/08/25 05:26:35;;;;;;;5.65;1.85;;;23.60;62.10;;;;;;5063080;28;20039;-88
2022/08/25 05:29:03;;;;;;;5.70;2.00;;;23.60;62.10;;;;;;5045236;28;20021;-88
2022/08/25 05:31:30;;;;;;;4.95;1.85;;;23.60;62.10;;;;;;5062022;28;20025;-88
2022/08/25 05:33:57;;;;;;;4.60;1.92;;;23.60;62.20;;;;;;5066496;28;20021;-89
2022/08/25 05:36:25;;;;;;;7.18;2.15;;;23.60;62.20;;;;;;5068025;28;20035;-87
2022/08/25 05:38:51;;;;;;;4.78;1.85;;;23.60;62.20;;;;;;5061010;28;20541;-90
2022/08/25 05:41:19;;;;;;;6.72;2.10;;;23.60;62.20;;;;;;5059443;28;20095;-89
2022/08/25 05:43:47;;;;;;;5.32;2.08;;;23.70;62.40;;;;;;5067232;28;20025;-91
2022/08/25 05:46:15;;;;;;;10.77;2.75;;;23.60;62.30;;;;;;5069318;28;20047;-91
2022/08/25 05:48:41;;;;;;;6.20;2.28;;;23.70;62.50;;;;;;5062583;28;20033;-90
2022/08/25 05:51:09;;;;;;;8.05;2.53;;;23.70;62.60;;;;;;5057136;28;20029;-92
2022/08/25 05:53:35;;;;;;;7.60;2.42;;;23.70;62.70;;;;;;5057227;28;20063;-92
2022/08/25 05:56:02;;;;;;;5.00;2.38;;;23.70;62.70;;;;;;5054198;28;20025;-90
2022/08/25 05:58:29;;;;;;;4.88;2.60;;;23.70;62.60;;;;;;5054636;28;20131;-91
2022/08/25 06:00:55;;;;;;;11.00;2.80;;;23.70;62.70;;;;;;5037551;28;20082;-86
2022/08/25 06:03:21;;;;;;;8.07;2.50;;;23.70;62.60;;;;;;5053887;28;20032;-93
2022/08/25 06:05:47;;;;;;;5.97;2.15;;;23.70;62.60;;;;;;5054403;28;20045;-91
2022/08/25 06:08:14;;;;;;;8.02;2.15;;;23.70;62.50;;;;;;5053956;28;20068;-92
2022/08/25 06:10:40;;;;;;;4.18;2.10;;;23.80;62.50;;;;;;5054886;28;20021;-91
2022/08/25 06:13:06;;;;;;;4.07;2.28;;;23.80;62.30;;;;;;5054184;28;20047;-91
2022/08/25 06:15:32;;;;;;;6.72;2.75;;;23.80;62.30;;;;;;5054302;28;20366;-91
2022/08/25 06:18:00;;;;;;;8.18;2.03;;;23.90;62.30;;;;;;5060487;28;20027;-89
2022/08/25 06:20:27;;;;;;;4.75;2.17;;;23.90;62.30;;;;;;5059653;28;20029;-91
2022/08/25 06:22:53;;;;;;;6.28;1.60;;;23.90;62.30;;;;;;5026094;28;20021;-91
2022/08/25 06:25:21;;;;;;;9.73;2.10;;;23.90;62.20;;;;;;5059587;28;20110;-91
2022/08/25 06:27:47;;;;;;;3.65;1.90;;;23.90;62.10;;;;;;5055011;28;20120;-91
2022/08/25 06:30:15;;;;;;;6.72;1.88;;;24.00;62.10;;;;;;5038338;28;20117;-90
2022/08/25 06:32:43;;;;;;;6.47;2.25;;;24.00;62.10;;;;;;5059191;28;20017;-89
2022/08/25 06:35:12;;;;;;;7.10;2.70;;;23.90;62.00;;;;;;5058647;28;20036;-91
2022/08/25 06:37:40;;;;;;;8.68;2.35;;;24.00;61.90;;;;;;5056479;28;20025;-91
2022/08/25 06:40:07;;;;;;;6.47;1.90;;;24.00;61.80;;;;;;5054815;28;20207;-91
2022/08/25 06:42:33;;;;;;;8.43;2.05;;;24.00;61.70;;;;;;5053938;28;20052;-89
2022/08/25 06:44:59;;;;;;;3.80;1.95;;;24.00;61.60;;;;;;5053455;28;20118;-91
2022/08/25 06:47:24;;;;;;;5.85;1.67;;;24.10;61.60;;;;;;5054207;28;20025;-93
2022/08/25 06:49:50;;;;;;;6.07;1.92;;;24.10;61.50;;;;;;5054861;28;20033;-92
2022/08/25 06:52:16;;;;;;;6.25;2.40;;;24.10;61.50;;;;;;5036550;28;20033;-90
2022/08/25 06:54:41;;;;;;;7.32;1.80;;;24.20;61.60;;;;;;5052984;28;20489;-91
2022/08/25 06:57:08;;;;;;;5.85;2.28;;;24.20;61.60;;;;;;5052537;28;20029;-92
2022/08/25 06:59:34;;;;;;;8.60;2.47;;;24.20;61.50;;;;;;5053396;28;20473;-92
2022/08/25 07:02:02;;;;;;;5.28;2.00;;;24.20;61.50;;;;;;5036528;28;20052;-89
2022/08/25 07:04:28;;;;;;;7.32;2.20;;;24.30;61.30;;;;;;5052466;28;20032;-91
2022/08/25 07:06:54;;;;;;;5.35;2.05;;;24.30;61.20;;;;;;5053917;28;20112;-91
2022/08/25 07:09:20;;;;;;;5.22;2.15;;;24.30;61.10;;;;;;5054196;28;20033;-92
2022/08/25 07:11:46;;;;;;;5.72;1.92;;;24.30;61.10;;;;;;5052929;28;20029;-89
2022/08/25 07:14:15;;;;;;;6.70;1.98;;;24.40;61.10;;;;;;5052679;28;20029;-91
2022/08/25 07:16:41;;;;;;;4.63;1.95;;;24.40;61.00;;;;;;5054430;28;20029;-91
2022/08/25 07:19:08;;;;;;;7.72;2.97;;;24.50;61.00;;;;;;5054415;28;20039;-91
2022/08/25 07:21:36;;;;;;;5.20;2.05;;;24.50;61.10;;;;;;5040347;28;20021;-89
2022/08/25 07:24:05;;;;;;;6.75;2.50;;;24.50;61.10;;;;;;5057941;28;20025;-92
2022/08/25 07:26:35;;;;;;;9.65;1.92;;;24.60;61.10;;;;;;5056478;28;20045;-92
2022/08/25 07:29:06;;;;;;;7.05;2.17;;;24.60;61.00;;;;;;5057952;28;20068;-92
2022/08/25 07:31:31;;;;;;;5.82;2.45;;;24.60;61.00;;;;;;5057103;28;20034;-93
2022/08/25 07:36:41;;;;;;;4.25;1.92;;;24.70;60.90;;;;;;5060851;28;20539;-91
2022/08/25 07:39:07;;;;;;;6.32;2.13;;;24.80;60.90;;;;;;5063683;28;20092;-90
2022/08/25 07:41:39;;;;;;;7.13;1.90;;;24.80;60.70;;;;;;5056918;28;20071;-90
2022/08/25 07:44:06;;;;;;;4.47;1.80;;;24.90;60.80;;;;;;5056395;28;20097;-91
2022/08/25 07:46:32;;;;;;;7.25;2.13;;;25.00;60.70;;;;;;5056119;28;20037;-89
2022/08/25 07:48:58;;;;;;;3.88;1.80;;;25.00;60.60;;;;;;5057450;28;20127;-90
2022/08/25 07:51:24;;;;;;;5.28;1.80;;;25.00;60.40;;;;;;5056896;28;20044;-91
2022/08/25 07:53:50;;;;;;;6.22;1.95;;;25.00;60.30;;;;;;5055821;28;20029;-92
2022/08/25 07:56:17;;;;;;;3.83;1.83;;;25.10;60.30;;;;;;5056450;28;20017;-91
2022/08/25 07:58:44;;;;;;;3.72;1.58;;;25.20;60.40;;;;;;5056198;28;20124;-91
2022/08/25 08:01:19;;;;;;;7.30;1.90;;;25.20;60.30;;;;;;5056106;28;20040;-92
2022/08/25 08:03:44;;;;;;;4.20;1.77;;;25.20;60.10;;;;;;5072970;28;20020;-93
2022/08/25 08:06:13;;;;;;;5.18;1.90;;;25.30;60.00;;;;;;5055778;28;20136;-91
2022/08/25 08:08:44;;;;;;;5.47;1.63;;;25.30;59.90;;;;;;5056174;28;20074;-90
2022/08/25 08:11:25;;;;;;;8.70;1.95;;;25.40;59.80;;;;;;5055901;28;20021;-91
2022/08/25 08:13:51;;;;;;;5.53;1.63;;;25.40;59.70;;;;;;5055931;28;20071;-91
2022/08/25 08:16:18;;;;;;;8.20;2.40;;;25.50;59.60;;;;;;5057164;28;20029;-92
2022/08/25 08:18:45;;;;;;;4.78;2.00;;;25.50;59.40;;;;;;5056770;28;20079;-90
2022/08/25 08:21:17;;;;;;;5.30;1.88;;;25.60;59.40;;;;;;5056810;28;20041;-91
2022/08/25 08:23:43;;;;;;;5.88;1.90;;;25.60;59.40;;;;;;5056582;28;20033;-92
2022/08/25 08:26:09;;;;;;;8.15;2.42;;;25.60;59.30;;;;;;5055341;28;20155;-91
2022/08/25 08:28:35;;;;;;;5.80;1.92;;;25.70;59.30;;;;;;5056788;28;20032;-91
2022/08/25 08:31:01;;;;;;;5.20;2.05;;;25.80;59.30;;;;;;5055928;28;20037;-91
2022/08/25 08:33:27;;;;;;;8.80;1.80;;;25.80;59.20;;;;;;5056383;28;20037;-90
2022/08/25 08:36:06;;;;;;;6.70;2.10;;;25.90;59.20;;;;;;5056945;28;20086;-91
2022/08/25 08:38:34;;;;;;;7.30;1.52;;;25.90;59.00;;;;;;5056411;28;20029;-91
2022/08/25 08:44:09;;;;;;;6.10;1.92;;;26.10;58.90;;;;;;5056167;28;20044;-91
2022/08/25 08:47:11;;;;;;;5.53;1.83;;;26.10;58.90;;;;;;5055992;28;20041;-92
2022/08/25 08:49:47;;;;;;;3.22;1.63;;;26.20;58.80;;;;;;5056243;28;20056;-90
2022/08/25 08:52:16;;;;;;;5.38;1.67;;;26.30;58.70;;;;;;5056217;28;20044;-89
2022/08/25 08:54:45;;;;;;;3.35;1.30;;;26.30;58.50;;;;;;5055698;28;20028;-90
2022/08/25 08:57:16;;;;;;;7.05;1.80;;;26.40;58.50;;;;;;5056001;28;20542;-92
2022/08/25 08:59:56;;;;;;;6.65;1.95;;;26.40;58.30;;;;;;5055923;28;20029;-91
2022/08/25 09:02:30;;;;;;;3.50;1.50;;;26.50;58.10;;;;;;5054631;28;20089;-89
2022/08/25 09:05:01;;;;;;;4.55;1.70;;;26.60;58.00;;;;;;5054397;28;20037;-91
2022/08/25 09:07:55;;;;;;;4.40;1.70;;;26.70;57.90;;;;;;5055740;28;20104;-91
2022/08/25 09:10:23;;;;;;;4.55;1.52;;;26.70;57.80;;;;;;5051430;28;20070;-89
2022/08/25 09:13:05;;;;;;;4.32;1.65;;;26.80;57.80;;;;;;5055349;28;20033;-91
2022/08/25 09:19:17;;;;;;;4.40;1.75;;;26.90;57.60;;;;;;5055914;28;20032;-89
2022/08/25 09:21:56;;;;;;;5.65;1.83;;;27.10;57.60;;;;;;5054506;28;20116;-90
2022/08/25 09:24:40;;;;;;;6.50;2.03;;;27.20;57.50;;;;;;5055659;28;20024;-91
2022/08/25 09:27:38;;;;;;;6.10;1.70;;;27.20;57.30;;;;;;5055975;28;20033;-91
2022/08/25 09:30:10;;;;;;;4.13;1.67;;;27.30;57.10;;;;;;5039542;28;20123;-91
2022/08/25 09:33:03;;;;;;;6.50;2.03;;;27.40;57.10;;;;;;5070911;28;20469;-91
2022/08/25 09:35:34;;;;;;;4.10;1.73;;;27.50;56.90;;;;;;5054802;28;20079;-91
2022/08/25 09:38:03;;;;;;;4.47;1.65;;;27.50;56.80;;;;;;5054142;28;20032;-90
2022/08/25 09:40:34;;;;;;;4.43;1.73;;;27.60;56.80;;;;;;5054186;28;20535;-91
2022/08/25 09:43:08;;;;;;;8.00;1.88;;;27.70;56.50;;;;;;5053647;28;20021;-90
2022/08/25 09:45:43;;;;;;;5.40;1.80;;;27.80;56.30;;;;;;5054394;28;20087;-90
2022/08/25 09:48:28;;;;;;;3.50;1.60;;;27.90;56.10;;;;;;5054421;28;20146;-90
2022/08/25 09:51:01;;;;;;;5.75;2.03;;;28.00;55.80;;;;;;5053511;28;20087;-91
2022/08/25 09:53:28;;;;;;;4.40;1.60;;;28.00;55.60;;;;;;5054157;28;20033;-90
2022/08/25 09:56:03;;;;;;;6.28;1.65;;;28.10;55.40;;;;;;5054834;28;20029;-90
2022/08/25 09:58:29;;;;;;;3.40;1.50;;;28.20;55.30;;;;;;5054302;28;20059;-90
2022/08/25 10:01:19;;;;;;;4.90;1.50;;;28.30;55.20;;;;;;5055812;28;20139;-93
2022/08/25 10:04:03;;;;;;;6.18;1.60;;;28.30;54.80;;;;;;5054343;28;20056;-90
2022/08/25 10:06:36;;;;;;;4.93;1.33;;;28.40;54.40;;;;;;5054244;28;20083;-91
2022/08/25 10:09:05;;;;;;;3.40;1.42;;;28.50;54.30;;;;;;5055291;28;20036;-90
2022/08/25 10:11:38;;;;;;;5.78;1.60;;;28.60;54.10;;;;;;5053851;28;20025;-88
2022/08/25 10:14:19;;;;;;;3.38;1.73;;;28.70;54.00;;;;;;5054201;28;20059;-88
2022/08/25 10:16:46;;;;;;;3.33;1.65;;;28.80;53.80;;;;;;5056970;28;20028;-90
2022/08/25 10:19:28;;;;;;;5.00;1.40;;;28.90;53.80;;;;;;5053856;28;20079;-89
2022/08/25 10:22:09;;;;;;;3.57;1.80;;;29.10;53.70;;;;;;5054251;28;20075;-89
2022/08/25 10:24:36;;;;;;;3.85;1.42;;;29.30;53.30;;;;;;5055305;28;20282;-88
2022/08/25 10:27:02;;;;;;;5.40;1.33;;;29.40;53.10;;;;;;5056075;28;20037;-87
2022/08/25 10:29:53;;;;;;;4.10;1.73;;;29.60;52.90;;;;;;5055994;28;20389;-88
2022/08/25 10:32:36;;;;;;;5.65;1.20;;;29.80;52.40;;;;;;5059579;28;20094;-89
2022/08/25 10:35:14;;;;;;;3.42;1.73;;;30.10;52.20;;;;;;5055558;28;20033;-88
2022/08/25 10:38:03;;;;;;;5.13;1.50;;;30.30;51.50;;;;;;5054912;28;20021;-88
2022/08/25 10:40:28;;;;;;;2.60;1.23;;;30.50;50.90;;;;;;5053783;28;20536;-88
2022/08/25 10:43:06;;;;;;;5.90;1.92;;;30.70;50.60;;;;;;5054157;28;20072;-89
2022/08/25 10:45:42;;;;;;;4.28;1.45;;;30.90;49.80;;;;;;5053995;28;20033;-88
2022/08/25 10:48:23;;;;;;;3.50;1.23;;;31.20;49.50;;;;;;5054377;28;20546;-88
2022/08/25 10:51:13;;;;;;;2.95;1.23;;;31.50;48.80;;;;;;5054268;28;20029;-88
2022/08/25 10:54:02;;;;;;;2.45;1.20;;;31.70;48.60;;;;;;5055707;28;20096;-90
2022/08/25 10:56:35;;;;;;;2.80;1.02;;;32.00;47.70;;;;;;5059160;28;20063;-89
2022/08/25 10:59:23;;;;;;;4.10;1.48;;;32.20;47.30;;;;;;5056253;28;20060;-88
2022/08/25 11:02:33;;;;;;;4.80;1.15;;;32.40;46.80;;;;;;5055177;28;20047;-86
2022/08/25 11:05:08;;;;;;;3.15;0.85;;;32.70;46.30;;;;;;5047415;28;20044;-88
2022/08/25 11:07:44;;;;;;;3.45;1.25;;;33.00;46.30;;;;;;5055188;28;20032;-89
2022/08/25 11:10:24;;;;;;;5.18;1.10;;;33.20;45.90;;;;;;5054175;28;20024;-89
2022/08/25 11:12:54;;;;;;;3.40;1.17;;;33.40;45.40;;;;;;5053672;28;20032;-89
2022/08/25 11:15:27;;;;;;;2.85;1.00;;;33.70;45.40;;;;;;5053737;28;20025;-89
2022/08/25 11:18:24;;;;;;;2.25;0.90;;;33.90;45.00;;;;;;5052163;28;20116;-87
2022/08/25 11:21:12;;;;;;;2.95;0.82;;;34.20;43.90;;;;;;5044843;28;20041;-87
2022/08/25 11:23:43;;;;;;;2.15;0.90;;;34.40;43.50;;;;;;5053874;28;20472;-88
2022/08/25 11:26:11;;;;;;;2.08;1.10;;;34.60;43.60;;;;;;5052770;28;20035;-89
2022/08/25 11:28:45;;;;;;;1.98;0.95;;;34.90;43.30;;;;;;5052820;28;20040;-87
2022/08/25 11:31:14;;;;;;;1.92;0.88;;;35.10;42.80;;;;;;5053293;28;20033;-88
2022/08/25 11:33:40;;;;;;;2.97;1.00;;;35.30;42.40;;;;;;5053730;28;20040;-86
2022/08/25 11:36:32;;;;;;;1.83;0.80;;;35.50;42.10;;;;;;5052363;28;20033;-88
2022/08/25 11:39:14;;;;;;;2.58;0.88;;;35.80;42.00;;;;;;5053823;28;20029;-89
2022/08/25 11:41:46;;;;;;;3.08;0.80;;;36.00;41.20;;;;;;5053495;28;20036;-87
2022/08/25 11:44:15;;;;;;;2.38;1.08;;;36.20;41.10;;;;;;5053312;28;20020;-88
2022/08/25 11:47:11;;;;;;;3.10;0.98;;;36.50;40.70;;;;;;5052900;28;20080;-88
2022/08/25 11:49:49;;;;;;;2.50;0.80;;;36.70;39.50;;;;;;5038286;28;20049;-87
2022/08/25 11:52:30;;;;;;;2.17;0.75;;;36.90;39.60;;;;;;5052777;28;20024;-88
2022/08/25 11:55:07;;;;;;;3.40;1.10;;;37.20;39.00;;;;;;5054478;28;20045;-88
2022/08/25 11:57:33;;;;;;;3.20;1.17;;;37.40;38.70;;;;;;5051794;28;20485;-87
2022/08/25 12:00:18;;;;;;;2.47;0.70;;;37.70;38.80;;;;;;5052322;28;20037;-88
2022/08/25 12:02:49;;;;;;;4.15;1.00;;;37.80;37.90;;;;;;5051868;28;20021;-88
2022/08/25 12:05:17;;;;;;;1.83;0.88;;;38.00;37.70;;;;;;5037160;28;20033;-88
2022/08/25 12:07:46;;;;;;;2.78;0.90;;;38.20;37.40;;;;;;5057087;28;20067;-87
2022/08/25 12:10:24;;;;;;;2.40;0.80;;;38.40;37.20;;;;;;5058547;28;20484;-88
2022/08/25 12:12:59;;;;;;;2.75;0.90;;;38.70;36.80;;;;;;5040465;28;20078;-86
2022/08/25 12:15:30;;;;;;;4.05;0.73;;;38.90;36.60;;;;;;5055800;28;20029;-86
2022/08/25 12:18:09;;;;;;;2.03;0.75;;;39.10;36.60;;;;;;5055240;28;20021;-88
2022/08/25 12:20:56;;;;;;;1.67;0.80;;;39.30;36.10;;;;;;5056790;28;20060;-88
2022/08/25 12:23:37;;;;;;;1.48;0.63;;;39.50;35.80;;;;;;5057499;28;20029;-86
2022/08/25 12:26:30;;;;;;;3.45;0.80;;;39.80;35.80;;;;;;5055351;28;20120;-89
2022/08/25 12:29:38;;;;;;;1.80;0.82;;;40.00;35.60;;;;;;5059454;28;20036;-88
2022/08/25 12:32:13;;;;;;;2.33;0.82;;;40.10;35.30;;;;;;5048099;28;20033;-87
2022/08/25 12:35:05;;;;;;;1.95;0.95;;;40.20;35.20;;;;;;5055039;28;20031;-88
2022/08/25 12:37:31;;;;;;;2.65;1.20;;;40.30;34.70;;;;;;5054782;28;20047;-87
2022/08/25 12:40:01;;;;;;;1.77;0.80;;;40.40;35.10;;;;;;5054442;28;20029;-87
2022/08/25 12:42:38;;;;;;;2.05;0.88;;;40.40;34.80;;;;;;5055733;28;20028;-88
2022/08/25 12:45:25;;;;;;;2.33;0.85;;;40.40;34.70;;;;;;5056768;28;20035;-88
2022/08/25 12:47:56;;;;;;;3.72;0.93;;;40.50;34.30;;;;;;5055513;28;20029;-88
2022/08/25 12:50:42;;;;;;;2.10;0.70;;;40.40;34.50;;;;;;5054869;28;20087;-88
2022/08/25 12:53:16;;;;;;;1.73;0.88;;;40.40;34.50;;;;;;5055594;28;20037;-87
2022/08/25 12:55:48;;;;;;;2.13;0.77;;;40.30;35.00;;;;;;5054793;28;20036;-87
2022/08/25 12:58:15;;;;;;;2.38;1.00;;;40.20;35.20;;;;;;5055702;28;20594;-88
2022/08/25 13:01:14;;;;;;;2.28;0.80;;;40.10;35.40;;;;;;5054653;28;20040;-88
2022/08/25 13:04:07;;;;;;;2.35;0.80;;;40.00;35.70;;;;;;5054441;28;20067;-88
2022/08/25 13:06:39;;;;;;;1.67;0.85;;;39.90;35.40;;;;;;5055040;28;20048;-87
2022/08/25 13:09:23;;;;;;;3.13;1.02;;;40.00;35.30;;;;;;5055803;28;20029;-87
2022/08/25 13:12:12;;;;;;;2.10;0.90;;;40.10;35.00;;;;;;5054387;28;20044;-87
2022/08/25 13:14:41;;;;;;;3.70;1.02;;;40.20;34.80;;;;;;5055397;28;20025;-87
2022/08/25 13:17:08;;;;;;;2.83;0.77;;;40.50;34.50;;;;;;5054192;28;20025;-88